N13151 KBED-KORH
Flight info
| Callsign | N13151 |
|---|---|
| Flight time | N/A |
| Altitude | VFR |
| Route | |
| Aircraft | C172/L-VGD/C |
Departure
| Time | 2026-04-26 01:24 |
|---|---|
| Airport | Laurence G Hanscom Field (KBED) |
Arrival
| Time | N/A |
|---|---|
| Airport | Worcester Regional Airport (KORH) |
| Time | Latitude | Longitude | Altitude | Speed | Heading |
|---|---|---|---|---|---|
| 2026-04-26 01:17 | 42.46397 | -71.29081 | 133 ft | 0 kts | 193° |
| 2026-04-26 01:18 | 42.46391 | -71.29084 | 132 ft | 2 kts | 208° |
| 2026-04-26 01:18 | 42.46390 | -71.29141 | 133 ft | 8 kts | 283° |
| 2026-04-26 01:19 | 42.46413 | -71.29195 | 133 ft | 6 kts | 310° |
| 2026-04-26 01:19 | 42.46463 | -71.29205 | 133 ft | 12 kts | 25° |
| 2026-04-26 01:19 | 42.46520 | -71.29148 | 133 ft | 9 kts | 34° |
| 2026-04-26 01:19 | 42.46572 | -71.29095 | 134 ft | 10 kts | 38° |
| 2026-04-26 01:20 | 42.46634 | -71.29032 | 135 ft | 13 kts | 38° |
| 2026-04-26 01:20 | 42.46718 | -71.28946 | 134 ft | 17 kts | 37° |
| 2026-04-26 01:20 | 42.46804 | -71.28857 | 133 ft | 15 kts | 37° |
| 2026-04-26 01:20 | 42.46846 | -71.28745 | 132 ft | 13 kts | 93° |
| 2026-04-26 01:21 | 42.46836 | -71.28633 | 133 ft | 12 kts | 97° |
| 2026-04-26 01:21 | 42.46824 | -71.28515 | 132 ft | 14 kts | 97° |
| 2026-04-26 01:21 | 42.46810 | -71.28365 | 131 ft | 18 kts | 98° |
| 2026-04-26 01:21 | 42.46794 | -71.28187 | 129 ft | 21 kts | 97° |
| 2026-04-26 01:22 | 42.46776 | -71.27979 | 126 ft | 24 kts | 97° |
| 2026-04-26 01:22 | 42.46755 | -71.27757 | 128 ft | 22 kts | 96° |
| 2026-04-26 01:22 | 42.46784 | -71.27595 | 126 ft | 14 kts | 40° |
| 2026-04-26 01:22 | 42.46856 | -71.27538 | 127 ft | 9 kts | 28° |
| 2026-04-26 01:23 | 42.46901 | -71.27500 | 127 ft | 7 kts | 43° |
| 2026-04-26 01:23 | 42.46948 | -71.27489 | 128 ft | 9 kts | 286° |
| 2026-04-26 01:23 | 42.46964 | -71.27668 | 128 ft | 43 kts | 277° |
| 2026-04-26 01:23 | 42.47025 | -71.28280 | 163 ft | 82 kts | 281° |
| 2026-04-26 01:24 | 42.47103 | -71.29082 | 368 ft | 87 kts | 275° |
| 2026-04-26 01:24 | 42.47185 | -71.29888 | 644 ft | 85 kts | 275° |
| 2026-04-26 01:24 | 42.47279 | -71.30699 | 894 ft | 87 kts | 276° |
| 2026-04-26 01:24 | 42.47268 | -71.31499 | 1187 ft | 85 kts | 256° |
| 2026-04-26 01:25 | 42.46999 | -71.32184 | 1456 ft | 83 kts | 233° |
| 2026-04-26 01:25 | 42.46630 | -71.32778 | 1698 ft | 82 kts | 226° |
| 2026-04-26 01:25 | 42.46254 | -71.33356 | 1945 ft | 82 kts | 226° |
| 2026-04-26 01:25 | 42.45874 | -71.33936 | 2171 ft | 83 kts | 226° |
| 2026-04-26 01:26 | 42.45483 | -71.34519 | 2404 ft | 84 kts | 226° |
| 2026-04-26 01:26 | 42.44977 | -71.34897 | 2614 ft | 86 kts | 198° |
| 2026-04-26 01:26 | 42.44413 | -71.35191 | 2827 ft | 88 kts | 207° |
| 2026-04-26 01:26 | 42.44043 | -71.35822 | 3036 ft | 88 kts | 246° |
| 2026-04-26 01:27 | 42.43753 | -71.36559 | 3252 ft | 89 kts | 246° |
| 2026-04-26 01:27 | 42.43479 | -71.37314 | 3470 ft | 89 kts | 248° |
| 2026-04-26 01:27 | 42.43200 | -71.38127 | 3518 ft | 102 kts | 249° |
| 2026-04-26 01:27 | 42.42892 | -71.39048 | 3521 ft | 114 kts | 249° |
| 2026-04-26 01:28 | 42.42561 | -71.40048 | 3517 ft | 118 kts | 249° |
| 2026-04-26 01:28 | 42.42223 | -71.41069 | 3519 ft | 119 kts | 249° |
| 2026-04-26 01:28 | 42.41881 | -71.42100 | 3520 ft | 120 kts | 249° |
| 2026-04-26 01:28 | 42.41540 | -71.43130 | 3519 ft | 120 kts | 249° |
| 2026-04-26 01:29 | 42.41199 | -71.44161 | 3523 ft | 120 kts | 249° |
| 2026-04-26 01:29 | 42.40857 | -71.45193 | 3520 ft | 120 kts | 249° |
| 2026-04-26 01:29 | 42.40517 | -71.46221 | 3520 ft | 120 kts | 249° |
| 2026-04-26 01:29 | 42.40176 | -71.47249 | 3519 ft | 120 kts | 249° |
| 2026-04-26 01:30 | 42.39836 | -71.48276 | 3518 ft | 119 kts | 249° |
| 2026-04-26 01:30 | 42.39509 | -71.49301 | 3518 ft | 118 kts | 254° |
| 2026-04-26 01:30 | 42.39282 | -71.50353 | 3517 ft | 118 kts | 257° |
| 2026-04-26 01:30 | 42.39047 | -71.51419 | 3521 ft | 118 kts | 256° |
| 2026-04-26 01:31 | 42.38806 | -71.52481 | 3520 ft | 118 kts | 256° |
| 2026-04-26 01:31 | 42.38562 | -71.53541 | 3517 ft | 118 kts | 256° |
| 2026-04-26 01:31 | 42.38319 | -71.54594 | 3519 ft | 117 kts | 256° |
| 2026-04-26 01:31 | 42.38075 | -71.55648 | 3519 ft | 117 kts | 256° |
| 2026-04-26 01:32 | 42.37829 | -71.56721 | 3426 ft | 121 kts | 256° |
| 2026-04-26 01:32 | 42.37579 | -71.57810 | 3304 ft | 121 kts | 256° |
| 2026-04-26 01:32 | 42.37328 | -71.58901 | 3175 ft | 121 kts | 255° |
| 2026-04-26 01:32 | 42.37076 | -71.59986 | 3045 ft | 121 kts | 254° |
| 2026-04-26 01:33 | 42.36825 | -71.61057 | 3022 ft | 118 kts | 253° |
| 2026-04-26 01:33 | 42.36582 | -71.62095 | 3017 ft | 116 kts | 253° |
| 2026-04-26 01:33 | 42.36339 | -71.63135 | 3006 ft | 116 kts | 253° |
| 2026-04-26 01:33 | 42.36098 | -71.64170 | 3006 ft | 115 kts | 253° |
| 2026-04-26 01:34 | 42.35857 | -71.65203 | 3005 ft | 115 kts | 253° |
| 2026-04-26 01:34 | 42.35616 | -71.66237 | 3002 ft | 115 kts | 253° |
| 2026-04-26 01:34 | 42.35377 | -71.67266 | 3001 ft | 114 kts | 253° |
| 2026-04-26 01:34 | 42.35141 | -71.68281 | 3000 ft | 112 kts | 253° |
| 2026-04-26 01:35 | 42.34910 | -71.69277 | 3000 ft | 110 kts | 254° |
| 2026-04-26 01:35 | 42.34821 | -71.70298 | 3000 ft | 109 kts | 266° |
| 2026-04-26 01:35 | 42.34768 | -71.71324 | 2999 ft | 109 kts | 266° |
| 2026-04-26 01:35 | 42.34715 | -71.72345 | 3001 ft | 109 kts | 266° |
| 2026-04-26 01:36 | 42.34665 | -71.73363 | 2998 ft | 109 kts | 266° |
| 2026-04-26 01:36 | 42.34614 | -71.74384 | 3000 ft | 109 kts | 266° |
| 2026-04-26 01:36 | 42.34565 | -71.75394 | 3001 ft | 109 kts | 266° |
| 2026-04-26 01:37 | 42.34471 | -71.77432 | 3000 ft | 108 kts | 266° |
| 2026-04-26 01:37 | 42.34424 | -71.78450 | 3000 ft | 109 kts | 266° |
| 2026-04-26 01:37 | 42.34380 | -71.79471 | 3000 ft | 109 kts | 266° |
| 2026-04-26 01:37 | 42.34337 | -71.80490 | 3001 ft | 109 kts | 266° |
| 2026-04-26 01:38 | 42.34296 | -71.81510 | 2999 ft | 109 kts | 266° |
| 2026-04-26 01:38 | 42.34254 | -71.82528 | 3000 ft | 108 kts | 266° |
| 2026-04-26 01:38 | 42.34214 | -71.83550 | 3000 ft | 109 kts | 266° |
| 2026-04-26 01:38 | 42.34177 | -71.84571 | 3003 ft | 109 kts | 266° |
| 2026-04-26 01:39 | 42.34140 | -71.85592 | 3000 ft | 109 kts | 264° |
| 2026-04-26 01:39 | 42.33958 | -71.86573 | 3001 ft | 107 kts | 250° |
| 2026-04-26 01:39 | 42.33681 | -71.87494 | 2999 ft | 107 kts | 245° |
| 2026-04-26 01:39 | 42.33369 | -71.88409 | 3000 ft | 107 kts | 244° |
| 2026-04-26 01:40 | 42.33056 | -71.89327 | 3000 ft | 107 kts | 244° |
| 2026-04-26 01:40 | 42.32745 | -71.90241 | 3000 ft | 107 kts | 244° |
| 2026-04-26 01:40 | 42.32386 | -71.91117 | 3001 ft | 106 kts | 235° |
| 2026-04-26 01:40 | 42.31973 | -71.91947 | 2999 ft | 106 kts | 235° |
| 2026-04-26 01:41 | 42.31562 | -71.92774 | 3002 ft | 106 kts | 235° |
| 2026-04-26 01:41 | 42.31152 | -71.93600 | 3005 ft | 106 kts | 235° |
| 2026-04-26 01:41 | 42.30739 | -71.94431 | 3004 ft | 107 kts | 235° |
| 2026-04-26 01:41 | 42.30325 | -71.95264 | 3005 ft | 107 kts | 235° |
| 2026-04-26 01:42 | 42.29910 | -71.96099 | 3005 ft | 107 kts | 235° |
| 2026-04-26 01:42 | 42.29496 | -71.96934 | 3004 ft | 107 kts | 235° |
| 2026-04-26 01:42 | 42.29088 | -71.97754 | 3006 ft | 106 kts | 235° |
| 2026-04-26 01:42 | 42.28674 | -71.98580 | 3003 ft | 106 kts | 235° |
| 2026-04-26 01:43 | 42.28257 | -71.99407 | 3007 ft | 107 kts | 235° |
| 2026-04-26 01:43 | 42.27838 | -72.00238 | 3004 ft | 107 kts | 235° |
| 2026-04-26 01:43 | 42.27418 | -72.01067 | 3004 ft | 107 kts | 236° |
| 2026-04-26 01:43 | 42.27279 | -72.02037 | 3025 ft | 107 kts | 279° |
| 2026-04-26 01:44 | 42.27428 | -72.03001 | 3046 ft | 110 kts | 281° |
| 2026-04-26 01:44 | 42.27524 | -72.04029 | 3105 ft | 109 kts | 276° |
| 2026-04-26 01:44 | 42.27591 | -72.05035 | 3104 ft | 110 kts | 270° |
| 2026-04-26 01:44 | 42.27603 | -72.06070 | 3100 ft | 109 kts | 268° |
| 2026-04-26 01:45 | 42.27876 | -72.07010 | 3040 ft | 114 kts | 316° |
| 2026-04-26 01:45 | 42.28593 | -72.07417 | 2960 ft | 114 kts | 359° |
| 2026-04-26 01:45 | 42.29116 | -72.07282 | 2897 ft | 114 kts | 25° |
| 2026-04-26 01:45 | 42.29667 | -72.06557 | 2793 ft | 117 kts | 69° |
| 2026-04-26 01:46 | 42.29662 | -72.05527 | 2854 ft | 110 kts | 116° |
| 2026-04-26 01:46 | 42.29257 | -72.04631 | 2787 ft | 106 kts | 129° |
| 2026-04-26 01:46 | 42.28778 | -72.04001 | 2787 ft | 93 kts | 143° |
| 2026-04-26 01:46 | 42.28283 | -72.03477 | 2789 ft | 91 kts | 145° |
| 2026-04-26 01:47 | 42.27772 | -72.02964 | 2809 ft | 91 kts | 148° |
| 2026-04-26 01:47 | 42.27310 | -72.02344 | 2819 ft | 97 kts | 117° |
| 2026-04-26 01:47 | 42.27285 | -72.01440 | 2850 ft | 98 kts | 81° |
| 2026-04-26 01:47 | 42.27311 | -72.00529 | 2772 ft | 97 kts | 97° |
| 2026-04-26 01:48 | 42.27248 | -71.99598 | 2664 ft | 100 kts | 99° |
| 2026-04-26 01:48 | 42.27194 | -71.98660 | 2560 ft | 101 kts | 97° |
| 2026-04-26 01:48 | 42.27178 | -71.97695 | 2415 ft | 105 kts | 93° |
| 2026-04-26 01:48 | 42.27121 | -71.96703 | 2217 ft | 104 kts | 102° |
| 2026-04-26 01:49 | 42.27017 | -71.95733 | 2042 ft | 106 kts | 100° |
| 2026-04-26 01:49 | 42.27008 | -71.94756 | 1904 ft | 104 kts | 93° |
| 2026-04-26 01:49 | 42.26963 | -71.93776 | 1770 ft | 103 kts | 98° |
| 2026-04-26 01:49 | 42.26911 | -71.92824 | 1596 ft | 101 kts | 99° |
| 2026-04-26 01:50 | 42.26869 | -71.91910 | 1427 ft | 99 kts | 97° |
| 2026-04-26 01:50 | 42.26826 | -71.91016 | 1297 ft | 95 kts | 99° |
| 2026-04-26 01:50 | 42.26778 | -71.90122 | 1172 ft | 97 kts | 95° |
| 2026-04-26 01:50 | 42.26755 | -71.89222 | 1144 ft | 102 kts | 97° |
| 2026-04-26 01:51 | 42.26706 | -71.88229 | 1272 ft | 104 kts | 98° |
| 2026-04-26 01:51 | 42.26631 | -71.87324 | 1576 ft | 92 kts | 109° |
| 2026-04-26 01:51 | 42.26292 | -71.86578 | 1759 ft | 97 kts | 142° |
| 2026-04-26 01:51 | 42.25729 | -71.86166 | 2044 ft | 88 kts | 166° |
| 2026-04-26 01:52 | 42.25175 | -71.85924 | 2335 ft | 81 kts | 166° |
| 2026-04-26 01:52 | 42.24627 | -71.85703 | 2555 ft | 83 kts | 165° |
| 2026-04-26 01:52 | 42.24072 | -71.85472 | 2772 ft | 84 kts | 166° |
| 2026-04-26 01:52 | 42.23513 | -71.85251 | 2985 ft | 86 kts | 166° |
| 2026-04-26 01:53 | 42.22880 | -71.85126 | 3018 ft | 98 kts | 198° |
| 2026-04-26 01:53 | 42.22480 | -71.85863 | 3025 ft | 108 kts | 258° |
| 2026-04-26 01:53 | 42.22302 | -71.86885 | 3018 ft | 114 kts | 257° |
| 2026-04-26 01:53 | 42.22116 | -71.87928 | 3016 ft | 115 kts | 257° |
| 2026-04-26 01:54 | 42.21928 | -71.88973 | 3013 ft | 115 kts | 256° |
| 2026-04-26 01:54 | 42.21738 | -71.90017 | 3015 ft | 115 kts | 256° |
| 2026-04-26 01:54 | 42.21549 | -71.91061 | 3017 ft | 114 kts | 256° |
| 2026-04-26 01:54 | 42.21363 | -71.92103 | 3016 ft | 114 kts | 256° |
| 2026-04-26 01:55 | 42.21180 | -71.93135 | 3014 ft | 113 kts | 257° |
| 2026-04-26 01:55 | 42.21207 | -71.94185 | 3017 ft | 113 kts | 277° |
| 2026-04-26 01:55 | 42.21297 | -71.95234 | 3015 ft | 113 kts | 276° |
| 2026-04-26 01:55 | 42.21387 | -71.96285 | 3014 ft | 113 kts | 276° |
| 2026-04-26 01:56 | 42.21474 | -71.97322 | 3015 ft | 112 kts | 276° |
| 2026-04-26 01:56 | 42.21563 | -71.98370 | 3017 ft | 112 kts | 276° |
| 2026-04-26 01:56 | 42.21650 | -71.99419 | 3015 ft | 113 kts | 276° |
| 2026-04-26 01:56 | 42.21739 | -72.00467 | 3014 ft | 112 kts | 276° |
| 2026-04-26 01:57 | 42.21827 | -72.01524 | 3014 ft | 113 kts | 276° |
| 2026-04-26 01:57 | 42.21915 | -72.02583 | 3015 ft | 114 kts | 276° |
| 2026-04-26 01:57 | 42.22004 | -72.03643 | 3018 ft | 114 kts | 276° |
| 2026-04-26 01:57 | 42.22092 | -72.04704 | 3018 ft | 114 kts | 276° |
| 2026-04-26 01:58 | 42.22178 | -72.05755 | 3018 ft | 114 kts | 276° |
| 2026-04-26 01:58 | 42.22266 | -72.06818 | 3016 ft | 114 kts | 276° |
| 2026-04-26 01:58 | 42.22354 | -72.07885 | 3016 ft | 114 kts | 276° |
| 2026-04-26 01:58 | 42.22442 | -72.08950 | 3021 ft | 114 kts | 277° |
| 2026-04-26 01:59 | 42.22881 | -72.09778 | 3017 ft | 114 kts | 339° |
| 2026-04-26 01:59 | 42.23664 | -72.09787 | 3018 ft | 114 kts | 7° |
| 2026-04-26 01:59 | 42.24450 | -72.09675 | 2989 ft | 116 kts | 7° |
| 2026-04-26 01:59 | 42.25253 | -72.09527 | 3031 ft | 116 kts | 9° |
| 2026-04-26 02:00 | 42.26049 | -72.09439 | 3058 ft | 115 kts | 5° |
| 2026-04-26 02:00 | 42.26843 | -72.09285 | 3034 ft | 117 kts | 21° |
| 2026-04-26 02:00 | 42.27469 | -72.08592 | 2978 ft | 119 kts | 62° |
| 2026-04-26 02:00 | 42.27654 | -72.07557 | 2993 ft | 109 kts | 93° |
| 2026-04-26 02:01 | 42.27564 | -72.06531 | 2844 ft | 112 kts | 101° |
| 2026-04-26 02:01 | 42.27433 | -72.05525 | 2881 ft | 110 kts | 103° |
| 2026-04-26 02:01 | 42.27393 | -72.04522 | 2837 ft | 97 kts | 93° |
| 2026-04-26 02:01 | 42.27427 | -72.03624 | 2791 ft | 98 kts | 95° |
| 2026-04-26 02:02 | 42.27385 | -72.02713 | 2785 ft | 100 kts | 98° |
| 2026-04-26 02:02 | 42.27315 | -72.01763 | 2819 ft | 102 kts | 94° |
| 2026-04-26 02:02 | 42.27296 | -72.00821 | 2736 ft | 101 kts | 95° |
| 2026-04-26 02:02 | 42.27238 | -71.99865 | 2605 ft | 103 kts | 97° |
| 2026-04-26 02:03 | 42.27210 | -71.98887 | 2459 ft | 106 kts | 97° |
| 2026-04-26 02:03 | 42.27138 | -71.97916 | 2383 ft | 104 kts | 98° |
| 2026-04-26 02:03 | 42.27110 | -71.96925 | 2245 ft | 105 kts | 95° |
| 2026-04-26 02:03 | 42.27065 | -71.95950 | 2113 ft | 105 kts | 99° |
| 2026-04-26 02:04 | 42.27020 | -71.94963 | 1990 ft | 104 kts | 99° |
| 2026-04-26 02:04 | 42.26952 | -71.93989 | 1871 ft | 105 kts | 98° |
| 2026-04-26 02:04 | 42.26928 | -71.93008 | 1713 ft | 104 kts | 98° |
| 2026-04-26 02:04 | 42.26889 | -71.92024 | 1549 ft | 104 kts | 101° |
| 2026-04-26 02:05 | 42.26817 | -71.91059 | 1500 ft | 103 kts | 99° |
| 2026-04-26 02:05 | 42.26789 | -71.90090 | 1505 ft | 103 kts | 93° |
| 2026-04-26 02:05 | 42.26749 | -71.89143 | 1482 ft | 104 kts | 98° |
| 2026-04-26 02:05 | 42.26707 | -71.88078 | 1519 ft | 116 kts | 95° |
| 2026-04-26 02:06 | 42.26634 | -71.87039 | 1823 ft | 106 kts | 97° |
| 2026-04-26 02:06 | 42.26383 | -71.86175 | 2077 ft | 97 kts | 140° |
| 2026-04-26 02:06 | 42.25832 | -71.85837 | 2410 ft | 85 kts | 180° |
| 2026-04-26 02:06 | 42.25294 | -71.86067 | 2662 ft | 84 kts | 212° |
| 2026-04-26 02:07 | 42.24812 | -71.86546 | 2851 ft | 89 kts | 219° |
| 2026-04-26 02:07 | 42.24232 | -71.86949 | 2985 ft | 97 kts | 200° |
| 2026-04-26 02:07 | 42.23556 | -71.87102 | 3099 ft | 105 kts | 172° |
| 2026-04-26 02:07 | 42.22920 | -71.86639 | 3284 ft | 103 kts | 152° |
| 2026-04-26 02:08 | 42.22332 | -71.86081 | 3447 ft | 104 kts | 133° |
| 2026-04-26 02:08 | 42.21872 | -71.85295 | 3488 ft | 107 kts | 125° |
| 2026-04-26 02:08 | 42.21480 | -71.84469 | 3588 ft | 104 kts | 119° |
| 2026-04-26 02:08 | 42.21137 | -71.83596 | 3654 ft | 105 kts | 112° |
| 2026-04-26 02:09 | 42.20852 | -71.82719 | 3669 ft | 98 kts | 112° |
| 2026-04-26 02:09 | 42.20566 | -71.81901 | 3547 ft | 98 kts | 114° |
| 2026-04-26 02:09 | 42.20113 | -71.81117 | 3258 ft | 110 kts | 142° |
| 2026-04-26 02:09 | 42.19429 | -71.80775 | 3155 ft | 104 kts | 170° |
| 2026-04-26 02:10 | 42.18721 | -71.80622 | 3114 ft | 103 kts | 171° |
| 2026-04-26 02:10 | 42.17984 | -71.80531 | 3043 ft | 105 kts | 180° |
| 2026-04-26 02:10 | 42.17278 | -71.80630 | 3113 ft | 102 kts | 188° |
| 2026-04-26 02:10 | 42.16648 | -71.81069 | 3158 ft | 105 kts | 229° |
| 2026-04-26 02:11 | 42.16283 | -71.81923 | 3197 ft | 108 kts | 252° |
| 2026-04-26 02:11 | 42.16223 | -71.82928 | 3263 ft | 106 kts | 280° |
| 2026-04-26 02:11 | 42.16617 | -71.83744 | 3204 ft | 111 kts | 333° |
| 2026-04-26 02:11 | 42.17363 | -71.83779 | 3204 ft | 104 kts | 21° |
| 2026-04-26 02:12 | 42.17967 | -71.83285 | 3165 ft | 106 kts | 46° |
| 2026-04-26 02:12 | 42.18439 | -71.82524 | 3151 ft | 102 kts | 53° |
| 2026-04-26 02:12 | 42.18866 | -71.81747 | 3085 ft | 105 kts | 57° |
| 2026-04-26 02:12 | 42.19483 | -71.81267 | 2985 ft | 109 kts | 359° |
| 2026-04-26 02:13 | 42.20179 | -71.81562 | 2985 ft | 102 kts | 333° |
| 2026-04-26 02:13 | 42.20795 | -71.82042 | 2809 ft | 106 kts | 329° |
| 2026-04-26 02:13 | 42.21429 | -71.82539 | 2683 ft | 104 kts | 331° |
| 2026-04-26 02:13 | 42.22060 | -71.83042 | 2509 ft | 106 kts | 328° |
| 2026-04-26 02:14 | 42.22703 | -71.83514 | 2346 ft | 105 kts | 328° |
| 2026-04-26 02:14 | 42.23300 | -71.83974 | 2236 ft | 92 kts | 329° |
| 2026-04-26 02:14 | 42.23887 | -71.84376 | 1945 ft | 95 kts | 328° |
| 2026-04-26 02:14 | 42.24457 | -71.84763 | 1724 ft | 92 kts | 330° |
| 2026-04-26 02:15 | 42.25041 | -71.85150 | 1526 ft | 96 kts | 329° |
| 2026-04-26 02:15 | 42.25582 | -71.85658 | 1523 ft | 90 kts | 318° |
| 2026-04-26 02:15 | 42.26048 | -71.86177 | 1545 ft | 90 kts | 315° |
| 2026-04-26 02:15 | 42.26437 | -71.86882 | 1784 ft | 88 kts | 276° |
| 2026-04-26 02:16 | 42.26291 | -71.87649 | 2013 ft | 90 kts | 240° |